sensor_id;sensor_type;location;lat;lon;timestamp;pressure;altitude;pressure_sealevel;temperature;humidity
11440;BME280;5776;51.814;4.510;2022-09-03T00:01:12;101093.03;;;19.63;52.57
11440;BME280;5776;51.814;4.510;2022-09-03T00:03:46;101090.28;;;19.63;52.50
11440;BME280;5776;51.814;4.510;2022-09-03T00:06:23;101091.44;;;19.62;51.98
11440;BME280;5776;51.814;4.510;2022-09-03T00:09:02;101091.13;;;19.64;52.38
11440;BME280;5776;51.814;4.510;2022-09-03T00:12:01;101081.91;;;19.60;52.24
11440;BME280;5776;51.814;4.510;2022-09-03T00:14:38;101085.69;;;19.55;52.70
11440;BME280;5776;51.814;4.510;2022-09-03T00:17:16;101080.88;;;19.52;52.11
11440;BME280;5776;51.814;4.510;2022-09-03T00:19:54;101088.22;;;19.48;52.77
11440;BME280;5776;51.814;4.510;2022-09-03T00:22:28;101084.31;;;19.49;52.58
11440;BME280;5776;51.814;4.510;2022-09-03T00:24:58;101080.78;;;19.49;52.75
11440;BME280;5776;51.814;4.510;2022-09-03T00:27:28;101086.16;;;19.45;52.47
11440;BME280;5776;51.814;4.510;2022-09-03T00:30:00;101087.16;;;19.40;52.51
11440;BME280;5776;51.814;4.510;2022-09-03T00:32:44;101090.16;;;19.35;52.50
11440;BME280;5776;51.814;4.510;2022-09-03T00:36:04;101078.78;;;19.37;52.12
11440;BME280;5776;51.814;4.510;2022-09-03T00:38:04;101081.09;;;19.35;52.41
11440;BME280;5776;51.814;4.510;2022-09-03T00:40:41;101077.88;;;19.33;52.19
11440;BME280;5776;51.814;4.510;2022-09-03T00:46:08;101083.13;;;19.26;52.21
11440;BME280;5776;51.814;4.510;2022-09-03T00:49:33;101081.84;;;19.23;52.82
11440;BME280;5776;51.814;4.510;2022-09-03T00:51:43;101075.88;;;19.21;52.79
11440;BME280;5776;51.814;4.510;2022-09-03T00:54:31;101084.13;;;19.21;52.59
11440;BME280;5776;51.814;4.510;2022-09-03T00:59:49;101084.50;;;19.19;52.35
11440;BME280;5776;51.814;4.510;2022-09-03T01:02:30;101082.88;;;19.18;52.38
11440;BME280;5776;51.814;4.510;2022-09-03T01:07:40;101091.34;;;19.13;53.24
11440;BME280;5776;51.814;4.510;2022-09-03T01:10:30;101088.59;;;19.13;52.74
11440;BME280;5776;51.814;4.510;2022-09-03T01:13:16;101095.13;;;19.09;52.98
11440;BME280;5776;51.814;4.510;2022-09-03T01:19:29;101087.91;;;19.04;53.70
11440;BME280;5776;51.814;4.510;2022-09-03T01:30:07;101096.69;;;18.97;53.40
11440;BME280;5776;51.814;4.510;2022-09-03T01:35:47;101088.31;;;18.94;53.58
11440;BME280;5776;51.814;4.510;2022-09-03T01:41:13;101093.56;;;18.87;53.40
11440;BME280;5776;51.814;4.510;2022-09-03T01:46:40;101085.31;;;18.87;53.86
11440;BME280;5776;51.814;4.510;2022-09-03T01:49:23;101084.84;;;18.85;53.71
11440;BME280;5776;51.814;4.510;2022-09-03T01:51:58;101085.16;;;18.83;54.02
11440;BME280;5776;51.814;4.510;2022-09-03T01:54:36;101081.16;;;18.81;53.83
11440;BME280;5776;51.814;4.510;2022-09-03T02:02:33;101095.44;;;18.74;54.08
11440;BME280;5776;51.814;4.510;2022-09-03T02:05:24;101088.88;;;18.66;54.53
11440;BME280;5776;51.814;4.510;2022-09-03T02:07:56;101084.38;;;18.62;55.05
11440;BME280;5776;51.814;4.510;2022-09-03T02:10:44;101096.16;;;18.62;54.48
11440;BME280;5776;51.814;4.510;2022-09-03T02:16:07;101091.69;;;18.57;55.02
11440;BME280;5776;51.814;4.510;2022-09-03T02:18:39;101087.66;;;18.55;55.35
11440;BME280;5776;51.814;4.510;2022-09-03T02:21:06;101086.38;;;18.52;54.67
11440;BME280;5776;51.814;4.510;2022-09-03T02:23:32;101090.59;;;18.50;54.86
11440;BME280;5776;51.814;4.510;2022-09-03T02:26:01;101090.59;;;18.50;54.91
11440;BME280;5776;51.814;4.510;2022-09-03T02:28:29;101078.66;;;18.46;55.10
11440;BME280;5776;51.814;4.510;2022-09-03T02:30:55;101077.06;;;18.45;55.12
11440;BME280;5776;51.814;4.510;2022-09-03T02:33:22;101085.50;;;18.40;55.29
11440;BME280;5776;51.814;4.510;2022-09-03T02:35:48;101079.88;;;18.36;54.76
11440;BME280;5776;51.814;4.510;2022-09-03T02:38:15;101079.88;;;18.36;55.24
11440;BME280;5776;51.814;4.510;2022-09-03T02:40:42;101080.41;;;18.29;54.98
11440;BME280;5776;51.814;4.510;2022-09-03T02:43:13;101082.00;;;18.30;55.50
11440;BME280;5776;51.814;4.510;2022-09-03T02:45:45;101073.03;;;18.21;55.15
11440;BME280;5776;51.814;4.510;2022-09-03T02:48:13;101080.13;;;18.22;55.14
11440;BME280;5776;51.814;4.510;2022-09-03T02:50:42;101082.88;;;18.22;55.58
11440;BME280;5776;51.814;4.510;2022-09-03T02:53:08;101077.78;;;18.12;56.26
11440;BME280;5776;51.814;4.510;2022-09-03T02:55:34;101079.56;;;18.08;55.74
11440;BME280;5776;51.814;4.510;2022-09-03T02:58:00;101073.94;;;18.04;55.85
11440;BME280;5776;51.814;4.510;2022-09-03T03:00:26;101074.63;;;18.01;56.83
11440;BME280;5776;51.814;4.510;2022-09-03T03:02:56;101071.38;;;17.99;55.97
11440;BME280;5776;51.814;4.510;2022-09-03T03:05:31;101076.13;;;17.90;57.15
11440;BME280;5776;51.814;4.510;2022-09-03T03:08:01;101077.09;;;17.85;56.92
11440;BME280;5776;51.814;4.510;2022-09-03T03:10:26;101073.25;;;17.86;57.37
11440;BME280;5776;51.814;4.510;2022-09-03T03:12:52;101075.03;;;17.82;56.89
11440;BME280;5776;51.814;4.510;2022-09-03T03:15:18;101074.88;;;17.79;57.08
11440;BME280;5776;51.814;4.510;2022-09-03T03:17:44;101075.38;;;17.72;57.08
11440;BME280;5776;51.814;4.510;2022-09-03T03:20:10;101073.44;;;17.73;57.63
11440;BME280;5776;51.814;4.510;2022-09-03T03:22:36;101071.84;;;17.71;57.44
11440;BME280;5776;51.814;4.510;2022-09-03T03:25:02;101075.53;;;17.76;57.36
11440;BME280;5776;51.814;4.510;2022-09-03T03:27:30;101077.63;;;17.70;57.47
11440;BME280;5776;51.814;4.510;2022-09-03T03:29:56;101073.31;;;17.69;57.66
11440;BME280;5776;51.814;4.510;2022-09-03T03:32:22;101077.69;;;17.61;57.90
11440;BME280;5776;51.814;4.510;2022-09-03T03:34:48;101074.59;;;17.63;57.83
11440;BME280;5776;51.814;4.510;2022-09-03T03:37:14;101081.25;;;17.62;57.24
11440;BME280;5776;51.814;4.510;2022-09-03T03:39:40;101085.78;;;17.58;57.33
11440;BME280;5776;51.814;4.510;2022-09-03T03:42:06;101082.41;;;17.52;58.09
11440;BME280;5776;51.814;4.510;2022-09-03T03:44:32;101089.84;;;17.52;57.75
11440;BME280;5776;51.814;4.510;2022-09-03T03:46:58;101087.28;;;17.46;57.70
11440;BME280;5776;51.814;4.510;2022-09-03T03:49:24;101081.00;;;17.46;57.62
11440;BME280;5776;51.814;4.510;2022-09-03T03:51:50;101078.72;;;17.48;57.76
11440;BME280;5776;51.814;4.510;2022-09-03T03:54:16;101076.97;;;17.43;58.36
11440;BME280;5776;51.814;4.510;2022-09-03T03:56:42;101081.16;;;17.41;58.01
11440;BME280;5776;51.814;4.510;2022-09-03T03:59:08;101088.75;;;17.35;58.38
11440;BME280;5776;51.814;4.510;2022-09-03T04:01:34;101086.00;;;17.35;58.74
11440;BME280;5776;51.814;4.510;2022-09-03T04:04:00;101075.03;;;17.35;58.34
11440;BME280;5776;51.814;4.510;2022-09-03T04:06:27;101079.72;;;17.35;58.65
11440;BME280;5776;51.814;4.510;2022-09-03T04:08:53;101072.00;;;17.28;58.83
11440;BME280;5776;51.814;4.510;2022-09-03T04:11:21;101073.63;;;17.20;58.49
11440;BME280;5776;51.814;4.510;2022-09-03T04:13:48;101081.72;;;17.17;59.34
11440;BME280;5776;51.814;4.510;2022-09-03T04:16:25;101071.34;;;17.22;59.17
11440;BME280;5776;51.814;4.510;2022-09-03T04:18:53;101078.97;;;17.17;59.45
11440;BME280;5776;51.814;4.510;2022-09-03T04:21:22;101073.00;;;17.15;59.29
11440;BME280;5776;51.814;4.510;2022-09-03T04:23:49;101072.06;;;17.11;59.48
11440;BME280;5776;51.814;4.510;2022-09-03T04:26:21;101072.06;;;17.11;59.26
11440;BME280;5776;51.814;4.510;2022-09-03T04:28:48;101071.41;;;17.14;59.13
11440;BME280;5776;51.814;4.510;2022-09-03T04:31:16;101072.50;;;17.13;59.56
11440;BME280;5776;51.814;4.510;2022-09-03T04:33:42;101072.38;;;17.09;59.34
11440;BME280;5776;51.814;4.510;2022-09-03T04:36:19;101077.06;;;17.09;59.95
11440;BME280;5776;51.814;4.510;2022-09-03T04:38:47;101076.09;;;17.04;59.96
11440;BME280;5776;51.814;4.510;2022-09-03T04:41:16;101069.31;;;17.02;59.77
11440;BME280;5776;51.814;4.510;2022-09-03T04:43:43;101074.47;;;17.03;59.92
11440;BME280;5776;51.814;4.510;2022-09-03T04:46:11;101080.13;;;17.07;59.17
11440;BME280;5776;51.814;4.510;2022-09-03T04:48:38;101066.91;;;17.00;59.26
11440;BME280;5776;51.814;4.510;2022-09-03T04:51:08;101075.59;;;17.02;59.72
11440;BME280;5776;51.814;4.510;2022-09-03T04:53:36;101080.78;;;17.04;59.79
11440;BME280;5776;51.814;4.510;2022-09-03T04:56:11;101070.47;;;17.01;59.87
11440;BME280;5776;51.814;4.510;2022-09-03T04:58:37;101071.25;;;17.01;59.09
11440;BME280;5776;51.814;4.510;2022-09-03T05:01:08;101079.00;;;16.99;59.53
11440;BME280;5776;51.814;4.510;2022-09-03T05:03:34;101075.28;;;16.95;60.19
11440;BME280;5776;51.814;4.510;2022-09-03T05:06:02;101069.34;;;16.93;59.96
11440;BME280;5776;51.814;4.510;2022-09-03T05:08:28;101080.31;;;16.93;59.63
11440;BME280;5776;51.814;4.510;2022-09-03T05:11:00;101085.16;;;16.96;60.33
11440;BME280;5776;51.814;4.510;2022-09-03T05:13:26;101084.16;;;16.92;59.99
11440;BME280;5776;51.814;4.510;2022-09-03T05:16:00;101085.31;;;16.91;60.53
11440;BME280;5776;51.814;4.510;2022-09-03T05:18:27;101082.25;;;16.84;61.00
11440;BME280;5776;51.814;4.510;2022-09-03T05:21:01;101081.28;;;16.80;60.08
11440;BME280;5776;51.814;4.510;2022-09-03T05:23:29;101079.50;;;16.84;60.09
11440;BME280;5776;51.814;4.510;2022-09-03T05:26:00;101079.03;;;16.82;59.89
11440;BME280;5776;51.814;4.510;2022-09-03T05:28:26;101082.25;;;16.84;60.08
11440;BME280;5776;51.814;4.510;2022-09-03T05:31:00;101082.75;;;16.86;61.24
11440;BME280;5776;51.814;4.510;2022-09-03T05:33:26;101080.66;;;16.83;61.36
11440;BME280;5776;51.814;4.510;2022-09-03T05:35:54;101087.09;;;16.87;60.42
11440;BME280;5776;51.814;4.510;2022-09-03T05:38:25;101088.22;;;16.86;60.97
11440;BME280;5776;51.814;4.510;2022-09-03T05:40:50;101086.78;;;16.89;60.54
11440;BME280;5776;51.814;4.510;2022-09-03T05:43:16;101087.88;;;16.88;60.88
11440;BME280;5776;51.814;4.510;2022-09-03T05:45:42;101090.97;;;16.86;61.41
11440;BME280;5776;51.814;4.510;2022-09-03T05:48:08;101089.50;;;16.89;61.77
11440;BME280;5776;51.814;4.510;2022-09-03T05:50:34;101088.06;;;16.91;60.80
11440;BME280;5776;51.814;4.510;2022-09-03T05:53:00;101086.44;;;16.90;60.81
11440;BME280;5776;51.814;4.510;2022-09-03T05:55:26;101089.16;;;16.90;60.65
11440;BME280;5776;51.814;4.510;2022-09-03T05:57:53;101085.81;;;16.93;61.58
11440;BME280;5776;51.814;4.510;2022-09-03T06:00:19;101090.16;;;16.94;61.04
11440;BME280;5776;51.814;4.510;2022-09-03T06:02:52;101096.59;;;16.98;61.11
11440;BME280;5776;51.814;4.510;2022-09-03T06:05:19;101095.81;;;16.98;61.13
11440;BME280;5776;51.814;4.510;2022-09-03T06:07:45;101093.88;;;16.98;61.77
11440;BME280;5776;51.814;4.510;2022-09-03T06:10:16;101095.94;;;17.01;61.53
11440;BME280;5776;51.814;4.510;2022-09-03T06:12:43;101098.03;;;17.04;61.42
11440;BME280;5776;51.814;4.510;2022-09-03T06:15:15;101098.84;;;17.05;62.14
11440;BME280;5776;51.814;4.510;2022-09-03T06:17:41;101099.16;;;17.12;60.79
11440;BME280;5776;51.814;4.510;2022-09-03T06:20:08;101100.59;;;17.18;60.05
11440;BME280;5776;51.814;4.510;2022-09-03T06:22:34;101100.44;;;17.23;59.85
11440;BME280;5776;51.814;4.510;2022-09-03T06:25:00;101098.50;;;17.24;60.47
11440;BME280;5776;51.814;4.510;2022-09-03T06:27:27;101103.00;;;17.28;61.11
11440;BME280;5776;51.814;4.510;2022-09-03T06:29:53;101107.16;;;17.35;60.21
11440;BME280;5776;51.814;4.510;2022-09-03T06:32:19;101114.75;;;17.38;60.12
11440;BME280;5776;51.814;4.510;2022-09-03T06:34:45;101110.53;;;17.40;60.34
11440;BME280;5776;51.814;4.510;2022-09-03T06:37:11;101107.78;;;17.40;59.85
11440;BME280;5776;51.814;4.510;2022-09-03T06:39:37;101110.09;;;17.38;60.26
11440;BME280;5776;51.814;4.510;2022-09-03T06:42:03;101108.81;;;17.36;60.25
11440;BME280;5776;51.814;4.510;2022-09-03T06:44:29;101106.84;;;17.36;60.52
11440;BME280;5776;51.814;4.510;2022-09-03T06:46:55;101107.97;;;17.35;61.98
11440;BME280;5776;51.814;4.510;2022-09-03T06:49:25;101107.47;;;17.42;61.21
11440;BME280;5776;51.814;4.510;2022-09-03T06:51:51;101109.06;;;17.43;60.18
11440;BME280;5776;51.814;4.510;2022-09-03T06:54:17;101103.56;;;17.52;60.72
11440;BME280;5776;51.814;4.510;2022-09-03T06:56:43;101110.47;;;17.58;61.13
11440;BME280;5776;51.814;4.510;2022-09-03T06:59:11;101109.19;;;17.64;60.64
11440;BME280;5776;51.814;4.510;2022-09-03T07:01:38;101112.25;;;17.62;61.28
11440;BME280;5776;51.814;4.510;2022-09-03T07:04:06;101117.44;;;17.64;61.53
11440;BME280;5776;51.814;4.510;2022-09-03T07:06:37;101105.78;;;17.67;60.65
11440;BME280;5776;51.814;4.510;2022-09-03T07:09:05;101110.28;;;17.71;61.00
11440;BME280;5776;51.814;4.510;2022-09-03T07:11:31;101111.88;;;17.73;61.30
11440;BME280;5776;51.814;4.510;2022-09-03T07:14:01;101122.22;;;17.76;60.94
11440;BME280;5776;51.814;4.510;2022-09-03T07:16:32;101120.28;;;17.76;61.23
11440;BME280;5776;51.814;4.510;2022-09-03T07:18:59;101119.94;;;17.78;61.15
11440;BME280;5776;51.814;4.510;2022-09-03T07:21:27;101128.38;;;17.81;60.52
11440;BME280;5776;51.814;4.510;2022-09-03T07:23:54;101118.97;;;17.82;60.93
11440;BME280;5776;51.814;4.510;2022-09-03T07:26:21;101128.84;;;17.83;60.99
11440;BME280;5776;51.814;4.510;2022-09-03T07:28:48;101127.38;;;17.86;60.88
11440;BME280;5776;51.814;4.510;2022-09-03T07:33:54;101122.13;;;18.02;60.57
11440;BME280;5776;51.814;4.510;2022-09-03T07:36:21;101117.72;;;18.09;60.35
11440;BME280;5776;51.814;4.510;2022-09-03T07:38:50;101119.97;;;18.16;60.68
11440;BME280;5776;51.814;4.510;2022-09-03T07:41:18;101122.72;;;18.16;60.04
11440;BME280;5776;51.814;4.510;2022-09-03T07:43:45;101125.44;;;18.16;60.64
11440;BME280;5776;51.814;4.510;2022-09-03T07:46:22;101130.13;;;18.16;61.00
11440;BME280;5776;51.814;4.510;2022-09-03T07:48:53;101123.81;;;18.15;60.59
11440;BME280;5776;51.814;4.510;2022-09-03T07:51:21;101123.81;;;18.15;61.02
11440;BME280;5776;51.814;4.510;2022-09-03T07:53:52;101136.09;;;18.18;60.43
11440;BME280;5776;51.814;4.510;2022-09-03T07:56:18;101131.88;;;18.20;60.34
11440;BME280;5776;51.814;4.510;2022-09-03T07:58:44;101128.81;;;18.22;60.57
11440;BME280;5776;51.814;4.510;2022-09-03T08:01:20;101131.84;;;18.29;59.97
11440;BME280;5776;51.814;4.510;2022-09-03T08:03:49;101139.91;;;18.34;60.62
11440;BME280;5776;51.814;4.510;2022-09-03T08:06:17;101140.50;;;18.40;60.91
11440;BME280;5776;51.814;4.510;2022-09-03T08:08:44;101130.31;;;18.40;60.89
11440;BME280;5776;51.814;4.510;2022-09-03T08:13:44;101139.63;;;18.48;60.51
11440;BME280;5776;51.814;4.510;2022-09-03T08:16:11;101140.09;;;18.50;61.24
11440;BME280;5776;51.814;4.510;2022-09-03T08:18:38;101140.38;;;18.57;61.24
11440;BME280;5776;51.814;4.510;2022-09-03T08:21:12;101138.91;;;18.60;61.67
11440;BME280;5776;51.814;4.510;2022-09-03T08:23:42;101153.25;;;18.65;61.71
11440;BME280;5776;51.814;4.510;2022-09-03T08:26:08;101147.75;;;18.65;61.83
11440;BME280;5776;51.814;4.510;2022-09-03T08:28:35;101140.66;;;18.64;61.45
11440;BME280;5776;51.814;4.510;2022-09-03T08:33:37;101145.28;;;18.72;61.77
11440;BME280;5776;51.814;4.510;2022-09-03T08:36:07;101156.09;;;18.77;61.02
11440;BME280;5776;51.814;4.510;2022-09-03T08:38:34;101140.56;;;18.82;60.95
11440;BME280;5776;51.814;4.510;2022-09-03T08:43:31;101151.34;;;18.87;61.27
11440;BME280;5776;51.814;4.510;2022-09-03T08:46:01;101147.59;;;18.91;60.61
11440;BME280;5776;51.814;4.510;2022-09-03T08:48:27;101145.97;;;18.90;61.31
11440;BME280;5776;51.814;4.510;2022-09-03T08:50:55;101152.63;;;18.89;61.50
11440;BME280;5776;51.814;4.510;2022-09-03T08:56:10;101155.28;;;18.98;61.15
11440;BME280;5776;51.814;4.510;2022-09-03T08:58:38;101161.94;;;18.97;61.38
11440;BME280;5776;51.814;4.510;2022-09-03T09:09:48;101163.13;;;19.08;61.79
11440;BME280;5776;51.814;4.510;2022-09-03T09:12:44;101170.84;;;19.15;61.49
11440;BME280;5776;51.814;4.510;2022-09-03T09:15:25;101173.28;;;19.16;62.32
11440;BME280;5776;51.814;4.510;2022-09-03T09:23:17;101176.88;;;19.29;62.20
11440;BME280;5776;51.814;4.510;2022-09-03T09:25:49;101180.91;;;19.32;61.66
11440;BME280;5776;51.814;4.510;2022-09-03T09:28:23;101168.03;;;19.36;60.99
11440;BME280;5776;51.814;4.510;2022-09-03T09:30:51;101170.16;;;19.39;60.73
11440;BME280;5776;51.814;4.510;2022-09-03T09:33:19;101165.44;;;19.39;61.99
11440;BME280;5776;51.814;4.510;2022-09-03T09:35:48;101162.47;;;19.45;61.63
11440;BME280;5776;51.814;4.510;2022-09-03T09:38:29;101161.09;;;19.51;61.52
11440;BME280;5776;51.814;4.510;2022-09-03T09:40:55;101171.56;;;19.57;61.65
11440;BME280;5776;51.814;4.510;2022-09-03T09:43:24;101169.13;;;19.56;61.42
11440;BME280;5776;51.814;4.510;2022-09-03T09:45:51;101167.00;;;19.61;61.43
11440;BME280;5776;51.814;4.510;2022-09-03T09:48:24;101158.84;;;19.65;61.40
11440;BME280;5776;51.814;4.510;2022-09-03T09:51:04;101151.63;;;19.73;61.45
11440;BME280;5776;51.814;4.510;2022-09-03T09:53:31;101153.38;;;19.77;61.79
11440;BME280;5776;51.814;4.510;2022-09-03T09:55:58;101148.09;;;19.84;62.15
11440;BME280;5776;51.814;4.510;2022-09-03T09:58:27;101152.91;;;19.88;61.22
11440;BME280;5776;51.814;4.510;2022-09-03T10:01:11;101154.97;;;19.91;60.55
11440;BME280;5776;51.814;4.510;2022-09-03T10:03:52;101150.97;;;19.88;60.70
11440;BME280;5776;51.814;4.510;2022-09-03T10:06:26;101155.22;;;19.85;61.02
11440;BME280;5776;51.814;4.510;2022-09-03T10:09:14;101146.94;;;19.85;61.47
11440;BME280;5776;51.814;4.510;2022-09-03T10:11:44;101160.84;;;19.89;61.78
11440;BME280;5776;51.814;4.510;2022-09-03T10:14:19;101155.44;;;19.93;62.57
11440;BME280;5776;51.814;4.510;2022-09-03T10:16:51;101156.72;;;19.95;61.78
11440;BME280;5776;51.814;4.510;2022-09-03T10:19:23;101154.88;;;19.99;62.23
11440;BME280;5776;51.814;4.510;2022-09-03T10:21:54;101149.38;;;20.12;61.97
11440;BME280;5776;51.814;4.510;2022-09-03T10:24:32;101150.03;;;20.21;61.43
11440;BME280;5776;51.814;4.510;2022-09-03T10:27:09;101148.91;;;20.22;61.71
11440;BME280;5776;51.814;4.510;2022-09-03T10:29:39;101149.38;;;20.24;61.08
11440;BME280;5776;51.814;4.510;2022-09-03T10:34:43;101149.78;;;20.38;61.99
11440;BME280;5776;51.814;4.510;2022-09-03T10:37:24;101146.09;;;20.46;61.94
11440;BME280;5776;51.814;4.510;2022-09-03T10:40:10;101154.38;;;20.46;62.63
11440;BME280;5776;51.814;4.510;2022-09-03T10:42:59;101149.31;;;20.48;61.66
11440;BME280;5776;51.814;4.510;2022-09-03T10:51:04;101146.56;;;20.61;60.92
11440;BME280;5776;51.814;4.510;2022-09-03T10:56:41;101137.59;;;20.64;60.92
11440;BME280;5776;51.814;4.510;2022-09-03T11:05:40;101142.94;;;20.85;58.90
11440;BME280;5776;51.814;4.510;2022-09-03T11:08:00;101141.78;;;20.86;58.67
11440;BME280;5776;51.814;4.510;2022-09-03T11:10:30;101154.63;;;20.94;58.73
11440;BME280;5776;51.814;4.510;2022-09-03T11:13:03;101158.88;;;20.91;59.47
11440;BME280;5776;51.814;4.510;2022-09-03T11:15:41;101157.75;;;20.92;58.25
11440;BME280;5776;51.814;4.510;2022-09-03T11:21:10;101158.16;;;21.07;57.65
11440;BME280;5776;51.814;4.510;2022-09-03T11:23:41;101152.63;;;21.07;56.98
11440;BME280;5776;51.814;4.510;2022-09-03T11:26:12;101148.72;;;21.08;57.24
11440;BME280;5776;51.814;4.510;2022-09-03T11:28:58;101142.03;;;21.09;57.61
11440;BME280;5776;51.814;4.510;2022-09-03T11:34:14;101148.31;;;21.22;57.08
11440;BME280;5776;51.814;4.510;2022-09-03T11:36:40;101145.91;;;21.20;57.11
11440;BME280;5776;51.814;4.510;2022-09-03T11:39:33;101144.38;;;21.23;57.15
11440;BME280;5776;51.814;4.510;2022-09-03T11:42:08;101143.59;;;21.22;57.37
11440;BME280;5776;51.814;4.510;2022-09-03T11:44:42;101144.47;;;21.26;57.00
11440;BME280;5776;51.814;4.510;2022-09-03T11:47:20;101143.22;;;21.24;56.68
11440;BME280;5776;51.814;4.510;2022-09-03T11:49:48;101136.91;;;21.23;56.43
11440;BME280;5776;51.814;4.510;2022-09-03T11:52:26;101139.78;;;21.27;57.00
11440;BME280;5776;51.814;4.510;2022-09-03T11:54:52;101143.94;;;21.36;55.69
11440;BME280;5776;51.814;4.510;2022-09-03T11:57:26;101137.06;;;21.43;56.41
11440;BME280;5776;51.814;4.510;2022-09-03T11:59:53;101140.06;;;21.38;57.09
11440;BME280;5776;51.814;4.510;2022-09-03T12:02:31;101135.44;;;21.42;57.17
11440;BME280;5776;51.814;4.510;2022-09-03T12:11:14;101134.09;;;21.51;56.79
11440;BME280;5776;51.814;4.510;2022-09-03T12:17:06;101139.94;;;21.62;57.50
11440;BME280;5776;51.814;4.510;2022-09-03T12:22:03;101134.47;;;21.66;56.04
11440;BME280;5776;51.814;4.510;2022-09-03T12:24:30;101122.63;;;21.65;56.42
11440;BME280;5776;51.814;4.510;2022-09-03T12:27:02;101123.09;;;21.67;56.78
11440;BME280;5776;51.814;4.510;2022-09-03T12:29:29;101121.56;;;21.70;56.73
11440;BME280;5776;51.814;4.510;2022-09-03T12:32:05;101123.97;;;21.71;55.71
11440;BME280;5776;51.814;4.510;2022-09-03T12:34:31;101123.78;;;21.80;55.82
11440;BME280;5776;51.814;4.510;2022-09-03T12:36:57;101119.06;;;21.81;54.99
11440;BME280;5776;51.814;4.510;2022-09-03T12:39:25;101112.28;;;21.78;55.24
11440;BME280;5776;51.814;4.510;2022-09-03T12:42:02;101114.69;;;21.79;55.46
11440;BME280;5776;51.814;4.510;2022-09-03T12:44:36;101114.78;;;21.83;55.35
11440;BME280;5776;51.814;4.510;2022-09-03T12:47:10;101119.59;;;21.86;55.10
11440;BME280;5776;51.814;4.510;2022-09-03T12:49:44;101117.25;;;21.88;55.96
11440;BME280;5776;51.814;4.510;2022-09-03T13:00:24;101113.94;;;21.98;54.67
11440;BME280;5776;51.814;4.510;2022-09-03T13:05:52;101114.84;;;22.03;55.42
11440;BME280;5776;51.814;4.510;2022-09-03T13:08:30;101111.28;;;22.02;55.79
11440;BME280;5776;51.814;4.510;2022-09-03T13:10:59;101104.59;;;22.03;54.77
11440;BME280;5776;51.814;4.510;2022-09-03T13:13:30;101107.00;;;22.05;54.72
11440;BME280;5776;51.814;4.510;2022-09-03T13:19:05;101100.47;;;22.13;55.16
11440;BME280;5776;51.814;4.510;2022-09-03T13:30:03;101101.72;;;22.15;53.63
11440;BME280;5776;51.814;4.510;2022-09-03T13:33:04;101100.72;;;22.24;54.26
11440;BME280;5776;51.814;4.510;2022-09-03T13:35:46;101096.81;;;22.25;53.62
11440;BME280;5776;51.814;4.510;2022-09-03T13:43:38;101093.38;;;22.31;54.54
11440;BME280;5776;51.814;4.510;2022-09-03T13:46:15;101093.75;;;22.30;53.25
11440;BME280;5776;51.814;4.510;2022-09-03T13:48:43;101095.06;;;22.36;53.44
11440;BME280;5776;51.814;4.510;2022-09-03T13:54:17;101092.63;;;22.50;52.56
11440;BME280;5776;51.814;4.510;2022-09-03T13:57:01;101091.38;;;22.48;52.84
11440;BME280;5776;51.814;4.510;2022-09-03T13:59:40;101096.97;;;22.51;52.09
11440;BME280;5776;51.814;4.510;2022-09-03T14:05:09;101091.66;;;22.42;52.29
11440;BME280;5776;51.814;4.510;2022-09-03T14:07:57;101086.19;;;22.46;52.66
11440;BME280;5776;51.814;4.510;2022-09-03T14:21:30;101092.94;;;22.29;54.04
11440;BME280;5776;51.814;4.510;2022-09-03T14:29:16;101085.75;;;22.09;55.14
11440;BME280;5776;51.814;4.510;2022-09-03T14:42:46;101099.78;;;22.00;56.45
11440;BME280;5776;51.814;4.510;2022-09-03T14:59:22;101092.81;;;22.41;53.61
11440;BME280;5776;51.814;4.510;2022-09-03T15:05:02;101089.06;;;22.50;53.06
11440;BME280;5776;51.814;4.510;2022-09-03T15:07:51;101093.63;;;22.61;52.35
11440;BME280;5776;51.814;4.510;2022-09-03T15:10:38;101092.25;;;22.71;51.17
11440;BME280;5776;51.814;4.510;2022-09-03T15:13:18;101089.47;;;22.71;51.51
11440;BME280;5776;51.814;4.510;2022-09-03T15:21:54;101102.59;;;22.55;51.42
11440;BME280;5776;51.814;4.510;2022-09-03T15:24:50;101100.91;;;22.50;52.21
11440;BME280;5776;51.814;4.510;2022-09-03T15:30:11;101103.81;;;22.38;53.77
11440;BME280;5776;51.814;4.510;2022-09-03T15:38:03;101103.97;;;22.45;53.78
11440;BME280;5776;51.814;4.510;2022-09-03T15:40:33;101102.22;;;22.56;52.63
11440;BME280;5776;51.814;4.510;2022-09-03T15:43:10;101109.88;;;22.63;52.26
11440;BME280;5776;51.814;4.510;2022-09-03T15:45:51;101107.41;;;22.58;52.65
11440;BME280;5776;51.814;4.510;2022-09-03T15:48:36;101102.31;;;22.60;53.50
11440;BME280;5776;51.814;4.510;2022-09-03T15:56:25;101091.81;;;22.69;52.95
11440;BME280;5776;51.814;4.510;2022-09-03T15:59:09;101088.59;;;22.67;53.62
11440;BME280;5776;51.814;4.510;2022-09-03T16:01:50;101092.69;;;22.73;52.79
11440;BME280;5776;51.814;4.510;2022-09-03T16:07:09;101099.91;;;22.78;53.19
11440;BME280;5776;51.814;4.510;2022-09-03T16:12:18;101095.16;;;22.78;52.69
11440;BME280;5776;51.814;4.510;2022-09-03T16:15:11;101098.66;;;22.75;53.26
11440;BME280;5776;51.814;4.510;2022-09-03T16:20:41;101102.19;;;22.72;53.66
11440;BME280;5776;51.814;4.510;2022-09-03T16:25:49;101106.63;;;22.57;53.64
11440;BME280;5776;51.814;4.510;2022-09-03T16:28:29;101112.50;;;22.56;53.64
11440;BME280;5776;51.814;4.510;2022-09-03T16:39:58;101107.09;;;22.43;55.49
11440;BME280;5776;51.814;4.510;2022-09-03T16:44:49;101103.88;;;22.41;55.43
11440;BME280;5776;51.814;4.510;2022-09-03T16:47:44;101107.03;;;22.40;55.79
11440;BME280;5776;51.814;4.510;2022-09-03T16:55:35;101112.56;;;22.40;56.00
11440;BME280;5776;51.814;4.510;2022-09-03T17:01:00;101118.09;;;22.40;56.19
11440;BME280;5776;51.814;4.510;2022-09-03T17:09:02;101120.88;;;22.59;54.77
11440;BME280;5776;51.814;4.510;2022-09-03T17:16:56;101131.53;;;22.57;53.50
11440;BME280;5776;51.814;4.510;2022-09-03T17:19:52;101135.88;;;22.58;53.31
11440;BME280;5776;51.814;4.510;2022-09-03T17:24:52;101139.72;;;22.54;53.43